createdAt,value
2023-02-18T00:02:21.940Z,0.70
2023-02-18T00:07:23.482Z,0.80
2023-02-18T00:12:25.036Z,0.60
2023-02-18T00:17:26.777Z,0.88
2023-02-18T00:22:28.728Z,0.55
2023-02-18T00:27:30.264Z,0.73
2023-02-18T00:32:35.103Z,0.88
2023-02-18T00:37:36.718Z,0.98
2023-02-18T00:42:38.252Z,0.93
2023-02-18T00:47:42.223Z,0.65
2023-02-18T00:52:43.762Z,0.80
2023-02-18T00:57:45.301Z,1.00
2023-02-18T01:02:46.878Z,0.90
2023-02-18T01:07:48.427Z,0.90
2023-02-18T01:12:49.984Z,0.90
2023-02-18T01:17:51.882Z,1.35
2023-02-18T01:22:53.400Z,1.00
2023-02-18T01:27:56.703Z,1.50
2023-02-18T01:32:58.467Z,0.90
2023-02-18T01:38:00.021Z,1.42
2023-02-18T01:43:01.581Z,1.30
2023-02-18T01:48:18.014Z,1.20
2023-02-18T01:53:31.258Z,1.45
2023-02-18T01:58:33.396Z,1.20
2023-02-18T02:03:36.503Z,1.23
2023-02-18T02:08:39.226Z,1.35
2023-02-18T02:14:03.825Z,1.48
2023-02-18T02:19:34.723Z,1.48
2023-02-18T02:24:53.074Z,1.30
2023-02-18T02:29:57.368Z,1.42
2023-02-18T02:35:24.327Z,1.70
2023-02-18T02:40:35.199Z,1.63
2023-02-18T02:46:12.919Z,1.77
2023-02-18T02:51:26.619Z,2.08
2023-02-18T02:56:29.352Z,2.20
2023-02-18T03:02:05.161Z,1.90
2023-02-18T03:07:19.550Z,1.85
2023-02-18T03:12:52.928Z,1.98
2023-02-18T03:17:54.668Z,2.10
2023-02-18T03:23:00.113Z,2.20
2023-02-18T03:28:20.658Z,2.05
2023-02-18T03:33:28.488Z,1.90
2023-02-18T03:38:37.942Z,1.90
2023-02-18T03:43:41.601Z,1.70
2023-02-18T03:48:43.610Z,1.60
2023-02-18T03:53:45.717Z,1.63
2023-02-18T03:58:47.788Z,1.90
2023-02-18T04:03:49.322Z,1.65
2023-02-18T04:08:51.188Z,2.17
2023-02-18T04:13:53.049Z,2.13
2023-02-18T04:18:54.603Z,1.80
2023-02-18T04:23:56.318Z,2.28
2023-02-18T04:28:57.955Z,2.08
2023-02-18T04:33:59.564Z,2.00
2023-02-18T04:39:01.109Z,1.60
2023-02-18T04:44:02.804Z,2.05
2023-02-18T04:49:04.384Z,1.85
2023-02-18T04:54:05.954Z,1.77
2023-02-18T04:59:07.505Z,1.92
2023-02-18T05:04:09.428Z,2.15
2023-02-18T05:09:11.771Z,1.80
2023-02-18T05:14:13.996Z,2.10
2023-02-18T05:19:16.125Z,1.80
2023-02-18T05:24:19.812Z,2.22
2023-02-18T05:29:21.392Z,2.45
2023-02-18T05:34:22.890Z,1.73
2023-02-18T05:39:24.432Z,2.15
2023-02-18T05:44:32.393Z,2.00
2023-02-18T05:49:35.080Z,1.92
2023-02-18T05:54:37.777Z,1.98
2023-02-18T05:59:39.397Z,1.90
2023-02-18T06:04:41.015Z,1.92
2023-02-18T06:09:42.520Z,2.15
2023-02-18T06:14:44.208Z,1.65
2023-02-18T06:19:45.944Z,1.70
2023-02-18T06:24:47.489Z,1.55
2023-02-18T06:29:48.991Z,2.47
2023-02-18T06:34:50.482Z,1.70
2023-02-18T06:39:52.121Z,1.70
2023-02-18T06:44:53.670Z,1.48
2023-02-18T06:49:55.213Z,2.00
2023-02-18T06:54:56.754Z,1.58
2023-02-18T06:59:58.661Z,1.60
2023-02-18T07:05:00.283Z,1.75
2023-02-18T07:10:02.235Z,1.90
2023-02-18T07:15:04.439Z,1.48
2023-02-18T07:20:06.981Z,1.60
2023-02-18T07:25:08.536Z,1.63
2023-02-18T07:30:10.565Z,1.55
2023-02-18T07:35:16.000Z,1.40
2023-02-18T07:40:21.556Z,1.60
2023-02-18T07:45:23.118Z,1.70
2023-02-18T07:50:24.720Z,1.48
2023-02-18T07:55:46.299Z,1.65
2023-02-18T08:00:49.544Z,1.70
2023-02-18T08:05:51.850Z,1.45
2023-02-18T08:10:55.341Z,1.63
2023-02-18T08:15:57.704Z,1.30
2023-02-18T08:21:00.375Z,1.20
2023-02-18T08:26:02.036Z,1.48
2023-02-18T08:31:04.043Z,1.25
2023-02-18T08:36:07.860Z,1.20
2023-02-18T08:41:09.970Z,1.15
2023-02-18T08:46:16.533Z,1.20
2023-02-18T08:51:34.082Z,1.20
2023-02-18T08:56:37.897Z,1.50
2023-02-18T09:01:39.470Z,1.20
2023-02-18T09:06:41.080Z,1.52
2023-02-18T09:11:43.172Z,1.45
2023-02-18T09:16:44.693Z,1.40
2023-02-18T09:21:46.277Z,1.33
2023-02-18T09:26:47.831Z,1.08
2023-02-18T09:31:49.513Z,1.13
2023-02-18T09:36:51.086Z,1.35
2023-02-18T09:42:02.568Z,1.20
2023-02-18T09:47:11.429Z,1.20
2023-02-18T09:52:26.819Z,1.17
2023-02-18T09:57:44.873Z,1.25
2023-02-18T10:02:58.622Z,1.50
2023-02-18T10:08:06.713Z,1.50
2023-02-18T10:13:15.240Z,1.63
2023-02-18T10:23:41.736Z,1.23
2023-02-18T10:28:43.528Z,1.50
2023-02-18T10:34:17.533Z,1.50
2023-02-18T10:40:11.261Z,1.38
2023-02-18T10:45:37.713Z,1.35
2023-02-18T10:50:42.090Z,1.38
2023-02-18T10:55:46.341Z,1.30
2023-02-18T11:00:47.875Z,1.35
2023-02-18T11:05:57.623Z,1.52
2023-02-18T11:11:09.625Z,1.30
2023-02-18T11:16:12.541Z,1.38
2023-02-18T11:21:32.525Z,1.02
2023-02-18T11:31:45.152Z,1.30
2023-02-18T11:36:48.230Z,1.10
2023-02-18T11:41:56.961Z,1.10
2023-02-18T11:47:16.656Z,1.30
2023-02-18T11:52:20.499Z,1.27
2023-02-18T11:57:26.453Z,1.35
2023-02-18T12:02:37.940Z,1.23
2023-02-18T12:07:48.892Z,1.67
2023-02-18T12:12:59.636Z,1.20
2023-02-18T12:18:16.287Z,1.60
2023-02-18T12:23:41.034Z,1.40
2023-02-18T12:28:51.503Z,1.30
2023-02-18T12:34:21.211Z,1.58
2023-02-18T12:39:31.767Z,1.95
2023-02-18T12:44:45.902Z,1.95
2023-02-18T12:50:06.387Z,1.85
2023-02-18T12:55:32.095Z,1.73
2023-02-18T13:00:48.630Z,1.50
2023-02-18T13:05:55.378Z,1.80
2023-02-18T13:11:09.089Z,2.00
2023-02-18T13:16:13.372Z,2.10
2023-02-18T13:21:16.826Z,1.83
2023-02-18T13:26:19.317Z,2.40
2023-02-18T13:31:44.852Z,1.60
2023-02-18T13:37:20.008Z,1.90
2023-02-18T13:42:32.038Z,1.42
2023-02-18T13:47:37.336Z,1.33
2023-02-18T13:52:38.907Z,1.40
2023-02-18T13:57:40.740Z,1.38
2023-02-18T14:02:57.779Z,1.45
2023-02-18T14:08:14.398Z,1.55
2023-02-18T14:13:39.659Z,1.20
2023-02-18T14:18:41.141Z,1.00
2023-02-18T14:23:51.808Z,0.95
2023-02-18T14:29:01.795Z,1.15
2023-02-18T14:34:18.543Z,0.90
2023-02-18T14:39:45.247Z,1.33
2023-02-18T14:45:17.126Z,1.00
2023-02-18T14:50:20.551Z,1.10
2023-02-18T14:55:49.890Z,1.05
2023-02-18T15:00:51.395Z,1.17
2023-02-18T15:05:52.973Z,1.08
2023-02-18T15:11:07.462Z,0.88
2023-02-18T15:16:14.352Z,1.25
2023-02-18T15:21:30.449Z,1.10
2023-02-18T15:26:32.453Z,1.20
2023-02-18T15:31:39.228Z,1.10
2023-02-18T15:36:40.812Z,1.13
2023-02-18T15:41:42.403Z,1.33
2023-02-18T15:46:44.000Z,1.55
2023-02-18T15:51:46.029Z,1.45
2023-02-18T15:56:52.233Z,1.38
2023-02-18T16:01:57.126Z,1.25
2023-02-18T16:07:20.861Z,1.27
2023-02-18T16:12:30.740Z,1.52
2023-02-18T16:22:43.064Z,1.23
2023-02-18T16:27:55.236Z,1.35
2023-02-18T16:32:57.964Z,1.52
2023-02-18T16:37:59.920Z,1.77
2023-02-18T16:43:09.488Z,1.52
2023-02-18T16:48:21.518Z,1.90
2023-02-18T16:53:23.734Z,1.73
2023-02-18T16:58:25.347Z,2.00
2023-02-18T17:03:26.909Z,1.77
2023-02-18T17:08:28.420Z,1.70
2023-02-18T17:13:31.558Z,1.80
2023-02-18T17:18:33.090Z,1.90
2023-02-18T17:23:34.593Z,2.35
2023-02-18T17:28:36.086Z,2.00
2023-02-18T17:33:38.651Z,2.50
2023-02-18T17:38:40.430Z,1.98
2023-02-18T17:43:42.533Z,1.70
2023-02-18T17:48:45.459Z,2.10
2023-02-18T17:53:47.093Z,1.67
2023-02-18T17:58:49.136Z,1.77
2023-02-18T18:03:50.654Z,1.70
2023-02-18T18:08:52.179Z,1.60
2023-02-18T18:13:53.724Z,1.40
2023-02-18T18:18:55.269Z,1.60
2023-02-18T18:23:56.996Z,1.58
2023-02-18T18:28:58.703Z,2.08
2023-02-18T18:34:01.421Z,2.40
2023-02-18T18:39:03.040Z,1.63
2023-02-18T18:44:04.855Z,1.98
2023-02-18T18:49:06.463Z,1.75
2023-02-18T18:54:11.618Z,1.63
2023-02-18T18:59:13.133Z,1.88
2023-02-18T19:04:14.871Z,2.00
2023-02-18T19:09:16.428Z,2.13
2023-02-18T19:14:17.954Z,1.90
2023-02-18T19:19:20.995Z,2.38
2023-02-18T19:24:22.494Z,1.67
2023-02-18T19:29:26.393Z,1.70
2023-02-18T19:34:27.895Z,1.98
2023-02-18T19:39:29.433Z,2.58
2023-02-18T19:44:34.453Z,2.33
2023-02-18T19:49:35.978Z,1.90
2023-02-18T19:54:37.522Z,2.53
2023-02-18T19:59:40.016Z,1.92
2023-02-18T20:04:42.436Z,2.40
2023-02-18T20:09:44.116Z,2.03
2023-02-18T20:14:46.035Z,2.30
2023-02-18T20:19:47.628Z,2.28
2023-02-18T20:24:49.247Z,2.53
2023-02-18T20:29:51.453Z,2.20
2023-02-18T20:34:53.063Z,2.50
2023-02-18T20:39:54.554Z,3.08
2023-02-18T20:44:56.093Z,2.70
2023-02-18T20:49:57.622Z,2.60
2023-02-18T20:54:59.189Z,2.45
2023-02-18T21:00:00.746Z,2.72
2023-02-18T21:05:02.304Z,3.17
2023-02-18T21:10:04.416Z,3.53
2023-02-18T21:15:06.559Z,2.80
2023-02-18T21:20:08.406Z,2.47
2023-02-18T21:25:09.967Z,3.17
2023-02-18T21:30:11.696Z,3.10
2023-02-18T21:35:13.250Z,3.58
2023-02-18T21:40:14.883Z,2.80
2023-02-18T21:45:17.150Z,2.90
2023-02-18T21:50:19.136Z,2.95
2023-02-18T21:55:20.724Z,3.60
2023-02-18T22:00:22.801Z,3.10
2023-02-18T22:05:26.076Z,3.50
2023-02-18T22:10:27.586Z,3.20
2023-02-18T22:15:29.096Z,3.17
2023-02-18T22:20:30.610Z,4.43
2023-02-18T22:25:32.142Z,3.42
2023-02-18T22:30:33.738Z,4.15
2023-02-18T22:35:35.411Z,3.67
2023-02-18T22:40:36.941Z,3.40
2023-02-18T22:45:38.512Z,4.60
2023-02-18T22:50:42.193Z,3.45
2023-02-18T22:55:44.080Z,4.00
2023-02-18T23:00:45.641Z,3.63
2023-02-18T23:05:47.455Z,3.22
2023-02-18T23:11:00.174Z,3.50
2023-02-18T23:16:04.862Z,3.85
2023-02-18T23:21:22.777Z,5.05
2023-02-18T23:26:25.765Z,3.42
2023-02-18T23:31:27.973Z,3.90
2023-02-18T23:36:31.712Z,4.00
2023-02-18T23:41:33.229Z,4.05
2023-02-18T23:46:35.164Z,4.20
2023-02-18T23:51:36.688Z,4.15
2023-02-18T23:56:38.383Z,3.88
